createdAt,value
2022-09-07T00:04:24.326Z,17.86
2022-09-07T00:09:29.048Z,17.80
2022-09-07T00:14:31.857Z,17.67
2022-09-07T00:19:34.612Z,17.61
2022-09-07T00:24:39.046Z,17.57
2022-09-07T00:29:41.829Z,17.57
2022-09-07T00:34:44.610Z,17.66
2022-09-07T00:39:49.521Z,17.74
2022-09-07T00:45:15.645Z,17.74
2022-09-07T00:50:23.457Z,17.68
2022-09-07T00:55:28.655Z,17.59
2022-09-07T01:00:32.547Z,17.50
2022-09-07T01:05:41.405Z,17.29
2022-09-07T01:10:46.820Z,17.10
2022-09-07T01:15:57.734Z,17.02
2022-09-07T01:21:22.412Z,17.03
2022-09-07T01:26:49.362Z,17.03
2022-09-07T01:32:05.344Z,16.89
2022-09-07T01:37:17.309Z,16.59
2022-09-07T01:42:25.530Z,16.50
2022-09-07T01:47:35.062Z,16.50
2022-09-07T01:52:43.022Z,16.44
2022-09-07T01:57:52.041Z,16.39
2022-09-07T02:03:01.047Z,16.40
2022-09-07T02:08:13.061Z,16.25
2022-09-07T02:13:20.934Z,16.11
2022-09-07T02:18:27.697Z,16.02
2022-09-07T02:23:36.225Z,15.96
2022-09-07T02:28:40.310Z,15.83
2022-09-07T02:33:44.674Z,15.69
2022-09-07T02:38:47.575Z,15.62
2022-09-07T02:43:50.386Z,15.65
2022-09-07T02:49:04.919Z,15.66
2022-09-07T02:54:33.665Z,15.57
2022-09-07T02:59:46.622Z,15.55
2022-09-07T03:04:55.109Z,15.59
2022-09-07T03:10:02.173Z,15.46
2022-09-07T03:15:05.613Z,15.32
2022-09-07T03:20:10.778Z,15.34
2022-09-07T03:25:14.213Z,15.39
2022-09-07T03:30:17.165Z,15.41
2022-09-07T03:35:21.438Z,15.44
2022-09-07T03:40:24.214Z,15.45
2022-09-07T03:45:27.004Z,15.28
2022-09-07T03:50:31.162Z,15.09
2022-09-07T03:55:33.950Z,15.20
2022-09-07T04:00:36.705Z,15.27
2022-09-07T04:05:40.825Z,15.34
2022-09-07T04:10:43.652Z,15.39
2022-09-07T04:15:48.267Z,15.39
2022-09-07T04:20:59.806Z,15.41
2022-09-07T04:26:02.583Z,15.56
2022-09-07T04:31:05.417Z,15.50
2022-09-07T04:36:10.194Z,15.29
2022-09-07T04:41:15.051Z,15.20
2022-09-07T04:46:20.311Z,15.16
2022-09-07T04:51:27.072Z,15.17
2022-09-07T04:56:30.828Z,15.17
2022-09-07T05:01:33.816Z,15.12
2022-09-07T05:06:38.125Z,15.13
2022-09-07T05:11:40.909Z,15.16
2022-09-07T05:16:43.773Z,15.08
2022-09-07T05:21:47.961Z,15.07
2022-09-07T05:26:50.828Z,15.17
2022-09-07T05:31:54.690Z,15.11
2022-09-07T05:36:59.409Z,15.04
2022-09-07T05:42:02.209Z,15.16
2022-09-07T05:47:05.103Z,15.28
2022-09-07T05:52:09.296Z,15.47
2022-09-07T05:57:13.199Z,15.64
2022-09-07T06:02:16.712Z,15.88
2022-09-07T06:07:22.355Z,16.02
2022-09-07T06:12:25.885Z,16.21
2022-09-07T06:17:29.480Z,16.33
2022-09-07T06:22:36.342Z,16.43
2022-09-07T06:27:39.120Z,16.63
2022-09-07T06:37:50.975Z,16.87
2022-09-07T06:42:53.750Z,17.00
2022-09-07T06:47:56.519Z,17.10
2022-09-07T06:58:24.743Z,17.37
2022-09-07T07:03:27.657Z,17.62
2022-09-07T07:08:32.520Z,17.87
2022-09-07T07:13:36.357Z,17.93
2022-09-07T07:18:39.764Z,18.04
2022-09-07T07:23:43.910Z,18.14
2022-09-07T07:29:03.958Z,18.25
2022-09-07T07:34:07.459Z,18.50
2022-09-07T07:44:34.494Z,19.15
2022-09-07T07:49:37.225Z,19.54
2022-09-07T07:54:41.319Z,19.81
2022-09-07T07:59:44.082Z,20.13
2022-09-07T08:04:46.895Z,20.37
2022-09-07T08:09:51.032Z,20.51
2022-09-07T08:14:54.110Z,20.72
2022-09-07T08:19:57.244Z,20.98
2022-09-07T08:25:01.525Z,21.01
2022-09-07T08:30:04.300Z,21.19
2022-09-07T08:35:08.094Z,21.36
2022-09-07T08:40:17.424Z,21.49
2022-09-07T08:45:28.592Z,21.57
2022-09-07T08:50:38.365Z,21.57
2022-09-07T08:55:48.441Z,21.41
2022-09-07T09:01:30.783Z,21.18
2022-09-07T09:06:20.307Z,20.99
2022-09-07T09:11:36.306Z,21.01
2022-09-07T09:16:43.962Z,21.36
2022-09-07T09:21:46.958Z,21.64
2022-09-07T09:26:57.358Z,21.69
2022-09-07T09:32:00.123Z,21.81
2022-09-07T09:37:02.895Z,21.86
2022-09-07T09:42:18.474Z,22.05
2022-09-07T09:47:30.605Z,22.28
2022-09-07T09:52:47.699Z,22.63
2022-09-07T10:08:56.415Z,23.35
2022-09-07T10:14:00.718Z,23.36
2022-09-07T10:19:03.489Z,23.60
2022-09-07T10:24:15.917Z,23.72
2022-09-07T10:29:28.649Z,23.78
2022-09-07T10:34:41.848Z,23.80
2022-09-07T10:40:00.658Z,23.95
2022-09-07T10:45:19.219Z,23.80
2022-09-07T10:50:30.889Z,23.48
2022-09-07T10:55:35.921Z,23.37
2022-09-07T11:00:48.089Z,23.19
2022-09-07T11:06:07.503Z,23.53
2022-09-07T11:11:19.943Z,23.92
2022-09-07T11:22:00.025Z,24.62
2022-09-07T11:27:10.942Z,24.96
2022-09-07T11:32:21.613Z,25.25
2022-09-07T11:37:30.209Z,25.29
2022-09-07T11:42:43.571Z,25.25
2022-09-07T11:47:54.316Z,25.56
2022-09-07T11:53:01.819Z,25.63
2022-09-07T11:58:29.792Z,25.24
2022-09-07T12:03:57.480Z,25.22
2022-09-07T12:09:27.354Z,25.37
2022-09-07T12:14:41.653Z,25.55
2022-09-07T12:19:46.001Z,25.53
2022-09-07T12:24:51.322Z,25.65
2022-09-07T12:30:54.118Z,26.26
2022-09-07T12:36:00.745Z,26.48
2022-09-07T12:41:05.580Z,26.68
2022-09-07T12:46:19.782Z,26.28
2022-09-07T13:02:46.932Z,26.83
2022-09-07T13:08:12.041Z,26.60
2022-09-07T13:14:02.617Z,26.43
2022-09-07T13:18:46.412Z,26.93
2022-09-07T13:24:47.001Z,27.18
2022-09-07T13:29:53.611Z,27.33
2022-09-07T13:35:09.468Z,27.69
2022-09-07T13:40:20.956Z,27.93
2022-09-07T13:45:30.296Z,27.99
2022-09-07T13:50:42.226Z,27.85
2022-09-07T13:55:56.122Z,28.15
2022-09-07T14:01:02.499Z,28.28
2022-09-07T14:06:27.770Z,27.76
2022-09-07T14:11:41.215Z,27.63
2022-09-07T14:16:46.737Z,27.58
2022-09-07T14:21:58.462Z,27.39
2022-09-07T14:27:03.547Z,27.29
2022-09-07T14:32:11.761Z,27.20
2022-09-07T14:37:17.752Z,26.93
2022-09-07T14:42:23.906Z,26.91
2022-09-07T14:47:29.647Z,26.36
2022-09-07T14:52:37.993Z,25.82
2022-09-07T14:57:44.797Z,25.52
2022-09-07T15:02:47.673Z,25.11
2022-09-07T15:07:52.293Z,24.74
2022-09-07T15:12:58.387Z,24.58
2022-09-07T15:18:08.215Z,24.32
2022-09-07T15:23:13.418Z,23.99
2022-09-07T15:33:48.660Z,23.92
2022-09-07T15:39:06.576Z,23.90
2022-09-07T15:44:10.731Z,23.99
2022-09-07T15:49:14.053Z,23.79
2022-09-07T15:54:20.587Z,23.64
2022-09-07T15:59:25.015Z,23.52
2022-09-07T16:04:27.863Z,23.44
2022-09-07T16:09:30.737Z,23.32
2022-09-07T16:14:35.266Z,23.18
2022-09-07T16:19:41.098Z,22.96
2022-09-07T16:24:44.105Z,22.85
2022-09-07T16:29:48.283Z,22.68
2022-09-07T16:34:51.214Z,22.45
2022-09-07T16:39:54.094Z,22.28
2022-09-07T16:46:02.603Z,21.93
2022-09-07T16:50:20.925Z,21.68
2022-09-07T16:55:23.633Z,21.59
2022-09-07T17:00:31.305Z,21.47
2022-09-07T17:05:40.137Z,21.46
2022-09-07T17:10:42.883Z,21.54
2022-09-07T17:15:47.004Z,21.20
2022-09-07T17:20:56.652Z,20.88
2022-09-07T17:26:05.702Z,20.74
2022-09-07T17:32:21.932Z,20.75
2022-09-07T17:36:35.460Z,20.71
2022-09-07T17:41:38.229Z,20.56
2022-09-07T17:46:42.420Z,20.49
2022-09-07T17:51:45.725Z,20.55
2022-09-07T17:56:48.495Z,20.67
2022-09-07T18:01:54.063Z,20.65
2022-09-07T18:06:57.190Z,20.50
2022-09-07T18:11:59.940Z,20.40
2022-09-07T18:17:06.042Z,20.22
2022-09-07T18:22:09.272Z,20.12
2022-09-07T18:27:12.010Z,20.21
2022-09-07T18:32:16.127Z,20.21
2022-09-07T18:37:19.379Z,20.22
2022-09-07T18:42:22.395Z,20.17
2022-09-07T18:47:29.199Z,20.05
2022-09-07T18:57:55.751Z,19.84
2022-09-07T19:02:59.974Z,19.83
2022-09-07T19:08:03.816Z,19.69
2022-09-07T19:13:06.633Z,19.61
2022-09-07T19:18:10.733Z,19.62
2022-09-07T19:23:13.429Z,19.56
2022-09-07T19:28:16.422Z,19.57
2022-09-07T19:33:20.640Z,19.57
2022-09-07T19:38:23.378Z,19.22
2022-09-07T19:43:27.079Z,19.24
2022-09-07T19:48:32.325Z,19.40
2022-09-07T19:53:37.373Z,19.38
2022-09-07T19:58:41.333Z,19.23
2022-09-07T20:03:46.645Z,19.21
2022-09-07T20:08:49.414Z,19.18
2022-09-07T20:13:52.487Z,19.03
2022-09-07T20:18:56.970Z,19.03
2022-09-07T20:23:59.502Z,19.00
2022-09-07T20:29:23.808Z,19.05
2022-09-07T20:34:26.864Z,19.06
2022-09-07T20:39:29.616Z,19.10
2022-09-07T20:44:32.330Z,19.07
2022-09-07T20:49:36.430Z,18.98
2022-09-07T20:54:39.170Z,18.91
2022-09-07T20:59:41.897Z,18.72
2022-09-07T21:04:45.998Z,17.50
2022-09-07T21:09:48.729Z,16.87
2022-09-07T21:14:51.456Z,16.48
2022-09-07T21:19:55.602Z,16.51
2022-09-07T21:24:58.831Z,16.41
2022-09-07T21:30:01.520Z,16.23
2022-09-07T21:35:06.146Z,15.55
2022-09-07T21:40:09.844Z,14.97
2022-09-07T21:45:12.827Z,14.95
2022-09-07T21:50:17.055Z,14.74
2022-09-07T21:55:19.782Z,14.39
2022-09-07T22:00:22.850Z,14.19
2022-09-07T22:05:27.155Z,14.31
2022-09-07T22:10:29.907Z,14.59
2022-09-07T22:15:37.504Z,14.73
2022-09-07T22:20:41.652Z,14.91
2022-09-07T22:25:52.699Z,15.03
2022-09-07T22:30:55.416Z,15.38
2022-09-07T22:36:11.301Z,15.35
2022-09-07T22:41:16.495Z,14.91
2022-09-07T22:46:20.752Z,15.10
2022-09-07T22:51:26.683Z,15.10
2022-09-07T22:56:32.470Z,15.17
2022-09-07T23:01:36.351Z,15.19
2022-09-07T23:06:41.806Z,15.26
2022-09-07T23:11:45.092Z,15.30
2022-09-07T23:16:48.063Z,15.33
2022-09-07T23:21:52.150Z,14.96
2022-09-07T23:26:54.924Z,14.97
2022-09-07T23:31:57.872Z,14.97
2022-09-07T23:37:01.991Z,15.04
2022-09-07T23:42:04.886Z,15.11
2022-09-07T23:47:07.689Z,15.18
2022-09-07T23:52:12.707Z,15.26
2022-09-07T23:57:15.449Z,15.30
